sensor_id;sensor_type;location;lat;lon;timestamp;pressure;altitude;pressure_sealevel;temperature;humidity
73341;BME280;61578;52.002;5.468;2023-05-01T00:00:05;101778.88;;;10.92;74.00
73341;BME280;61578;52.002;5.468;2023-05-01T00:00:36;101771.84;;;10.91;73.53
73341;BME280;61578;52.002;5.468;2023-05-01T00:01:07;101771.22;;;10.86;73.78
73341;BME280;61578;52.002;5.468;2023-05-01T00:01:41;101789.59;;;10.90;73.64
73341;BME280;61578;52.002;5.468;2023-05-01T00:02:12;101769.19;;;10.91;73.62
73341;BME280;61578;52.002;5.468;2023-05-01T00:02:48;101730.66;;;10.65;73.88
73341;BME280;61578;52.002;5.468;2023-05-01T00:03:19;101774.44;;;10.92;73.49
73341;BME280;61578;52.002;5.468;2023-05-01T00:03:50;101775.53;;;10.88;73.78
73341;BME280;61578;52.002;5.468;2023-05-01T00:04:20;101772.72;;;10.91;73.38
73341;BME280;61578;52.002;5.468;2023-05-01T00:04:51;101769.19;;;10.91;73.38
73341;BME280;61578;52.002;5.468;2023-05-01T00:05:22;101775.28;;;10.93;73.70
73341;BME280;61578;52.002;5.468;2023-05-01T00:05:59;101769.97;;;10.93;74.05
73341;BME280;61578;52.002;5.468;2023-05-01T00:06:31;101773.41;;;10.95;74.00
73341;BME280;61578;52.002;5.468;2023-05-01T00:07:04;101767.25;;;10.94;73.63
73341;BME280;61578;52.002;5.468;2023-05-01T00:07:35;101766.47;;;10.92;74.05
73341;BME280;61578;52.002;5.468;2023-05-01T00:08:07;101769.38;;;10.88;73.68
73341;BME280;61578;52.002;5.468;2023-05-01T00:08:37;101770.75;;;10.95;73.50
73341;BME280;61578;52.002;5.468;2023-05-01T00:09:16;101765.38;;;10.96;73.93
73341;BME280;61578;52.002;5.468;2023-05-01T00:09:47;101729.41;;;10.72;73.80
73341;BME280;61578;52.002;5.468;2023-05-01T00:10:18;101763.41;;;11.00;74.10
73341;BME280;61578;52.002;5.468;2023-05-01T00:10:49;101756.63;;;10.94;73.82
73341;BME280;61578;52.002;5.468;2023-05-01T00:11:22;101770.44;;;11.01;73.69
73341;BME280;61578;52.002;5.468;2023-05-01T00:11:54;101751.69;;;10.87;73.39
73341;BME280;61578;52.002;5.468;2023-05-01T00:12:25;101715.28;;;10.72;73.10
73341;BME280;61578;52.002;5.468;2023-05-01T00:12:56;101768.56;;;11.03;73.12
73341;BME280;61578;52.002;5.468;2023-05-01T00:13:30;101762.25;;;11.05;72.68
73341;BME280;61578;52.002;5.468;2023-05-01T00:14:03;101770.16;;;11.07;73.37
73341;BME280;61578;52.002;5.468;2023-05-01T00:14:37;101773.03;;;11.02;72.81
73341;BME280;61578;52.002;5.468;2023-05-01T00:15:08;101711.75;;;10.71;73.10
73341;BME280;61578;52.002;5.468;2023-05-01T00:15:40;101758.81;;;11.03;72.76
73341;BME280;61578;52.002;5.468;2023-05-01T00:16:11;101760.66;;;11.01;72.74
73341;BME280;61578;52.002;5.468;2023-05-01T00:16:44;101763.41;;;11.00;73.12
73341;BME280;61578;52.002;5.468;2023-05-01T00:17:18;101761.72;;;10.99;73.88
73341;BME280;61578;52.002;5.468;2023-05-01T00:17:48;101759.88;;;10.99;73.66
73341;BME280;61578;52.002;5.468;2023-05-01T00:18:19;101760.00;;;10.98;73.25
73341;BME280;61578;52.002;5.468;2023-05-01T00:18:49;101752.94;;;10.97;73.54
73341;BME280;61578;52.002;5.468;2023-05-01T00:19:20;101745.19;;;10.92;73.53
73341;BME280;61578;52.002;5.468;2023-05-01T00:19:52;101752.16;;;10.95;73.78
73341;BME280;61578;52.002;5.468;2023-05-01T00:20:27;101752.16;;;10.95;73.87
73341;BME280;61578;52.002;5.468;2023-05-01T00:21:01;101745.06;;;10.95;73.64
73341;BME280;61578;52.002;5.468;2023-05-01T00:21:32;101749.59;;;10.93;73.73
73341;BME280;61578;52.002;5.468;2023-05-01T00:22:03;101751.44;;;10.91;74.59
73341;BME280;61578;52.002;5.468;2023-05-01T00:22:33;101742.00;;;10.86;73.96
73341;BME280;61578;52.002;5.468;2023-05-01T00:23:04;101754.28;;;10.88;73.78
73341;BME280;61578;52.002;5.468;2023-05-01T00:23:36;101748.88;;;10.90;73.85
73341;BME280;61578;52.002;5.468;2023-05-01T00:24:06;101748.00;;;10.89;73.63
73341;BME280;61578;52.002;5.468;2023-05-01T00:24:37;101745.47;;;10.88;73.97
73341;BME280;61578;52.002;5.468;2023-05-01T00:25:08;101750.50;;;10.92;74.14
73341;BME280;61578;52.002;5.468;2023-05-01T00:25:39;101755.75;;;10.94;73.58
73341;BME280;61578;52.002;5.468;2023-05-01T00:26:11;101741.53;;;10.95;73.96
73341;BME280;61578;52.002;5.468;2023-05-01T00:26:45;101700.34;;;10.69;73.18
73341;BME280;61578;52.002;5.468;2023-05-01T00:27:16;101739.81;;;10.94;73.56
73341;BME280;61578;52.002;5.468;2023-05-01T00:27:48;101731.91;;;10.92;73.36
73341;BME280;61578;52.002;5.468;2023-05-01T00:28:22;101670.28;;;10.51;73.39
73341;BME280;61578;52.002;5.468;2023-05-01T00:28:59;101700.34;;;10.69;73.25
73341;BME280;61578;52.002;5.468;2023-05-01T00:29:29;101695.44;;;10.61;73.40
73341;BME280;61578;52.002;5.468;2023-05-01T00:30:00;101744.59;;;10.87;73.72
73341;BME280;61578;52.002;5.468;2023-05-01T00:30:31;101738.72;;;10.81;73.26
73341;BME280;61578;52.002;5.468;2023-05-01T00:31:04;101739.44;;;10.84;73.90
73341;BME280;61578;52.002;5.468;2023-05-01T00:31:37;101727.53;;;10.74;73.89
73341;BME280;61578;52.002;5.468;2023-05-01T00:32:08;101727.53;;;10.74;74.26
73341;BME280;61578;52.002;5.468;2023-05-01T00:32:39;101707.84;;;10.61;73.77
73341;BME280;61578;52.002;5.468;2023-05-01T00:33:10;101730.00;;;10.79;74.58
73341;BME280;61578;52.002;5.468;2023-05-01T00:33:41;101734.50;;;10.77;74.57
73341;BME280;61578;52.002;5.468;2023-05-01T00:34:12;101738.09;;;10.76;74.14
73341;BME280;61578;52.002;5.468;2023-05-01T00:34:45;101731.22;;;10.72;74.29
73341;BME280;61578;52.002;5.468;2023-05-01T00:35:17;101728.72;;;10.68;74.20
73341;BME280;61578;52.002;5.468;2023-05-01T00:35:51;101733.25;;;10.66;74.73
73341;BME280;61578;52.002;5.468;2023-05-01T00:36:24;101743.88;;;10.66;74.58
73341;BME280;61578;52.002;5.468;2023-05-01T00:36:55;101730.75;;;10.63;74.54
73341;BME280;61578;52.002;5.468;2023-05-01T00:37:29;101677.50;;;10.30;75.04
73341;BME280;61578;52.002;5.468;2023-05-01T00:38:02;101728.31;;;10.59;75.12
73341;BME280;61578;52.002;5.468;2023-05-01T00:38:33;101680.25;;;10.29;74.66
73341;BME280;61578;52.002;5.468;2023-05-01T00:39:06;101728.53;;;10.54;75.32
73341;BME280;61578;52.002;5.468;2023-05-01T00:39:37;101728.63;;;10.53;75.17
73341;BME280;61578;52.002;5.468;2023-05-01T00:40:08;101723.38;;;10.51;75.18
73341;BME280;61578;52.002;5.468;2023-05-01T00:40:43;101721.66;;;10.50;75.33
73341;BME280;61578;52.002;5.468;2023-05-01T00:41:14;101724.50;;;10.47;75.32
73341;BME280;61578;52.002;5.468;2023-05-01T00:41:45;101672.88;;;10.17;75.33
73341;BME280;61578;52.002;5.468;2023-05-01T00:42:16;101720.97;;;10.47;75.32
73341;BME280;61578;52.002;5.468;2023-05-01T00:42:47;101669.44;;;10.15;75.56
73341;BME280;61578;52.002;5.468;2023-05-01T00:43:17;101724.78;;;10.41;76.22
73341;BME280;61578;52.002;5.468;2023-05-01T00:43:50;101721.19;;;10.42;76.04
73341;BME280;61578;52.002;5.468;2023-05-01T00:44:20;101718.78;;;10.38;75.65
73341;BME280;61578;52.002;5.468;2023-05-01T00:44:51;101692.97;;;10.22;76.18
73341;BME280;61578;52.002;5.468;2023-05-01T00:45:22;101723.13;;;10.39;75.95
73341;BME280;61578;52.002;5.468;2023-05-01T00:45:52;101710.03;;;10.36;76.04
73341;BME280;61578;52.002;5.468;2023-05-01T00:46:23;101723.50;;;10.31;76.00
73341;BME280;61578;52.002;5.468;2023-05-01T00:46:57;101717.25;;;10.32;76.19
73341;BME280;61578;52.002;5.468;2023-05-01T00:47:30;101711.94;;;10.32;76.22
73341;BME280;61578;52.002;5.468;2023-05-01T00:48:00;101725.28;;;10.30;76.70
73341;BME280;61578;52.002;5.468;2023-05-01T00:48:32;101705.06;;;10.28;76.10
73341;BME280;61578;52.002;5.468;2023-05-01T00:49:03;101657.75;;;10.00;75.77
73341;BME280;61578;52.002;5.468;2023-05-01T00:49:34;101700.22;;;10.19;75.51
73341;BME280;61578;52.002;5.468;2023-05-01T00:50:06;101711.47;;;10.24;76.65
73341;BME280;61578;52.002;5.468;2023-05-01T00:50:39;101701.78;;;10.23;76.86
73341;BME280;61578;52.002;5.468;2023-05-01T00:51:11;101702.59;;;10.25;76.48
73341;BME280;61578;52.002;5.468;2023-05-01T00:51:48;101677.31;;;9.97;76.51
73341;BME280;61578;52.002;5.468;2023-05-01T00:52:23;101707.16;;;10.21;75.98
73341;BME280;61578;52.002;5.468;2023-05-01T00:52:54;101708.25;;;10.17;75.74
73341;BME280;61578;52.002;5.468;2023-05-01T00:53:26;101702.94;;;10.17;75.97
73341;BME280;61578;52.002;5.468;2023-05-01T00:54:01;101669.53;;;9.94;76.07
73341;BME280;61578;52.002;5.468;2023-05-01T00:54:32;101705.50;;;10.19;76.46
73341;BME280;61578;52.002;5.468;2023-05-01T00:55:03;101710.88;;;10.17;76.52
73341;BME280;61578;52.002;5.468;2023-05-01T00:55:35;101701.06;;;10.19;77.16
73341;BME280;61578;52.002;5.468;2023-05-01T00:56:11;101703.78;;;10.18;76.41
73341;BME280;61578;52.002;5.468;2023-05-01T00:56:47;101705.44;;;10.20;76.28
73341;BME280;61578;52.002;5.468;2023-05-01T00:57:21;101698.41;;;10.19;76.25
73341;BME280;61578;52.002;5.468;2023-05-01T00:57:52;101701.22;;;10.16;76.75
73341;BME280;61578;52.002;5.468;2023-05-01T00:58:24;101697.56;;;10.19;76.08
73341;BME280;61578;52.002;5.468;2023-05-01T00:58:55;101691.59;;;10.14;76.47
73341;BME280;61578;52.002;5.468;2023-05-01T00:59:29;101701.13;;;10.18;76.83
73341;BME280;61578;52.002;5.468;2023-05-01T00:59:59;101700.28;;;10.17;76.63
73341;BME280;61578;52.002;5.468;2023-05-01T01:00:30;101684.88;;;10.07;76.18
73341;BME280;61578;52.002;5.468;2023-05-01T01:01:04;101710.81;;;10.19;76.68
73341;BME280;61578;52.002;5.468;2023-05-01T01:01:34;101698.56;;;10.16;77.10
73341;BME280;61578;52.002;5.468;2023-05-01T01:02:06;101693.59;;;10.09;76.84
73341;BME280;61578;52.002;5.468;2023-05-01T01:02:37;101700.34;;;10.16;76.14
73341;BME280;61578;52.002;5.468;2023-05-01T01:03:09;101691.03;;;10.07;76.82
73341;BME280;61578;52.002;5.468;2023-05-01T01:03:40;101696.03;;;10.13;76.33
73341;BME280;61578;52.002;5.468;2023-05-01T01:04:12;101668.63;;;9.95;76.32
73341;BME280;61578;52.002;5.468;2023-05-01T01:04:45;101644.38;;;9.84;76.62
73341;BME280;61578;52.002;5.468;2023-05-01T01:05:20;101700.63;;;10.10;77.16
73341;BME280;61578;52.002;5.468;2023-05-01T01:06:03;101689.16;;;10.09;77.08
73341;BME280;61578;52.002;5.468;2023-05-01T01:07:46;101683.91;;;10.08;76.85
73341;BME280;61578;52.002;5.468;2023-05-01T01:08:28;101706.84;;;10.09;77.13
73341;BME280;61578;52.002;5.468;2023-05-01T01:10:18;101684.16;;;10.03;77.63
73341;BME280;61578;52.002;5.468;2023-05-01T01:11:18;101684.88;;;10.07;77.59
73341;BME280;61578;52.002;5.468;2023-05-01T01:12:19;101686.56;;;10.08;76.55
73341;BME280;61578;52.002;5.468;2023-05-01T01:13:19;101689.16;;;10.09;76.65
73341;BME280;61578;52.002;5.468;2023-05-01T01:14:05;101680.44;;;10.07;76.59
73341;BME280;61578;52.002;5.468;2023-05-01T01:14:58;101676.19;;;10.03;77.00
73341;BME280;61578;52.002;5.468;2023-05-01T01:15:48;101680.44;;;10.07;76.61
73341;BME280;61578;52.002;5.468;2023-05-01T01:16:45;101687.34;;;10.10;77.71
73341;BME280;61578;52.002;5.468;2023-05-01T01:17:41;101682.13;;;10.08;77.03
73341;BME280;61578;52.002;5.468;2023-05-01T01:20:43;101670.75;;;10.06;77.03
73341;BME280;61578;52.002;5.468;2023-05-01T01:21:34;101674.31;;;10.05;76.96
73341;BME280;61578;52.002;5.468;2023-05-01T01:22:15;101672.69;;;10.03;77.56
73341;BME280;61578;52.002;5.468;2023-05-01T01:23:27;101671.75;;;10.04;76.72
73341;BME280;61578;52.002;5.468;2023-05-01T01:26:31;101656.91;;;10.00;76.21
73341;BME280;61578;52.002;5.468;2023-05-01T01:29:38;101659.97;;;10.09;76.30
73341;BME280;61578;52.002;5.468;2023-05-01T01:30:40;101659.75;;;10.14;76.12
73341;BME280;61578;52.002;5.468;2023-05-01T01:34:39;101652.69;;;10.31;74.83
73341;BME280;61578;52.002;5.468;2023-05-01T01:35:18;101641.22;;;10.31;74.17
73341;BME280;61578;52.002;5.468;2023-05-01T01:35:56;101653.28;;;10.38;73.64
73341;BME280;61578;52.002;5.468;2023-05-01T01:36:38;101652.69;;;10.49;73.70
73341;BME280;61578;52.002;5.468;2023-05-01T01:37:29;101646.31;;;10.53;73.18
73341;BME280;61578;52.002;5.468;2023-05-01T01:38:16;101648.75;;;10.57;73.86
73341;BME280;61578;52.002;5.468;2023-05-01T01:39:13;101646.75;;;10.61;73.11
73341;BME280;61578;52.002;5.468;2023-05-01T01:39:57;101634.53;;;10.58;73.28
73341;BME280;61578;52.002;5.468;2023-05-01T01:40:49;101644.03;;;10.62;73.42
73341;BME280;61578;52.002;5.468;2023-05-01T01:41:30;101598.19;;;10.42;72.61
73341;BME280;61578;52.002;5.468;2023-05-01T01:42:08;101642.78;;;10.69;72.46
73341;BME280;61578;52.002;5.468;2023-05-01T01:42:58;101604.91;;;10.49;72.97
73341;BME280;61578;52.002;5.468;2023-05-01T01:43:41;101647.16;;;10.70;73.09
73341;BME280;61578;52.002;5.468;2023-05-01T01:44:22;101645.28;;;10.73;73.08
73341;BME280;61578;52.002;5.468;2023-05-01T01:45:04;101637.25;;;10.74;71.85
73341;BME280;61578;52.002;5.468;2023-05-01T01:45:45;101640.75;;;10.75;72.37
73341;BME280;61578;52.002;5.468;2023-05-01T01:46:21;101630.47;;;10.68;72.50
73341;BME280;61578;52.002;5.468;2023-05-01T01:46:53;101635.44;;;10.75;72.93
73341;BME280;61578;52.002;5.468;2023-05-01T01:47:28;101623.25;;;10.70;72.85
73341;BME280;61578;52.002;5.468;2023-05-01T01:48:02;101636.91;;;10.80;71.89
73341;BME280;61578;52.002;5.468;2023-05-01T01:48:41;101639.41;;;10.83;71.13
73341;BME280;61578;52.002;5.468;2023-05-01T01:49:22;101637.53;;;10.85;71.34
73341;BME280;61578;52.002;5.468;2023-05-01T01:49:58;101632.53;;;10.79;71.04
73341;BME280;61578;52.002;5.468;2023-05-01T01:50:36;101582.97;;;10.62;71.31
73341;BME280;61578;52.002;5.468;2023-05-01T01:51:17;101630.09;;;10.92;70.72
73341;BME280;61578;52.002;5.468;2023-05-01T01:51:55;101623.75;;;10.94;70.28
73341;BME280;61578;52.002;5.468;2023-05-01T01:52:32;101624.69;;;10.93;70.34
73341;BME280;61578;52.002;5.468;2023-05-01T01:53:08;101630.53;;;11.00;71.23
73341;BME280;61578;52.002;5.468;2023-05-01T01:53:46;101633.97;;;11.02;71.85
73341;BME280;61578;52.002;5.468;2023-05-01T01:54:27;101617.97;;;11.03;71.84
73341;BME280;61578;52.002;5.468;2023-05-01T01:55:11;101629.44;;;11.04;71.24
73341;BME280;61578;52.002;5.468;2023-05-01T01:55:45;101576.84;;;10.78;70.36
73341;BME280;61578;52.002;5.468;2023-05-01T01:56:21;101623.19;;;11.05;69.56
73341;BME280;61578;52.002;5.468;2023-05-01T01:56:58;101626.44;;;11.10;69.05
73341;BME280;61578;52.002;5.468;2023-05-01T01:57:35;101620.97;;;11.13;70.20
73341;BME280;61578;52.002;5.468;2023-05-01T01:58:10;101607.09;;;11.08;69.23
73341;BME280;61578;52.002;5.468;2023-05-01T01:58:46;101616.53;;;11.14;68.21
73341;BME280;61578;52.002;5.468;2023-05-01T01:59:20;101613.72;;;11.17;68.89
73341;BME280;61578;52.002;5.468;2023-05-01T01:59:54;101604.31;;;11.10;69.12
73341;BME280;61578;52.002;5.468;2023-05-01T02:00:27;101613.78;;;11.15;69.35
73341;BME280;61578;52.002;5.468;2023-05-01T02:00:59;101606.91;;;11.11;69.72
73341;BME280;61578;52.002;5.468;2023-05-01T02:01:38;101612.16;;;11.13;69.86
73341;BME280;61578;52.002;5.468;2023-05-01T02:02:14;101610.44;;;11.12;70.11
73341;BME280;61578;52.002;5.468;2023-05-01T02:02:47;101613.00;;;11.13;70.83
73341;BME280;61578;52.002;5.468;2023-05-01T02:03:22;101607.00;;;11.10;70.55
73341;BME280;61578;52.002;5.468;2023-05-01T02:03:56;101602.53;;;11.10;69.22
73341;BME280;61578;52.002;5.468;2023-05-01T02:04:31;101615.81;;;11.10;70.05
73341;BME280;61578;52.002;5.468;2023-05-01T02:05:13;101606.03;;;11.11;69.68
73341;BME280;61578;52.002;5.468;2023-05-01T02:05:46;101605.97;;;11.12;70.15
73341;BME280;61578;52.002;5.468;2023-05-01T02:06:21;101599.00;;;11.10;70.45
73341;BME280;61578;52.002;5.468;2023-05-01T02:06:58;101611.56;;;11.07;70.04
73341;BME280;61578;52.002;5.468;2023-05-01T02:07:36;101605.13;;;11.12;70.38
73341;BME280;61578;52.002;5.468;2023-05-01T02:08:13;101599.72;;;11.13;69.12
73341;BME280;61578;52.002;5.468;2023-05-01T02:08:49;101599.78;;;11.12;67.99
73341;BME280;61578;52.002;5.468;2023-05-01T02:09:25;101598.63;;;11.17;68.26
73341;BME280;61578;52.002;5.468;2023-05-01T02:09:59;101604.72;;;11.19;68.59
73341;BME280;61578;52.002;5.468;2023-05-01T02:10:35;101601.94;;;11.21;68.43
73341;BME280;61578;52.002;5.468;2023-05-01T02:11:10;101597.69;;;11.18;69.15
73341;BME280;61578;52.002;5.468;2023-05-01T02:11:45;101595.09;;;11.17;69.26
73341;BME280;61578;52.002;5.468;2023-05-01T02:12:19;101587.56;;;11.09;70.05
73341;BME280;61578;52.002;5.468;2023-05-01T02:12:53;101602.22;;;11.16;69.61
73341;BME280;61578;52.002;5.468;2023-05-01T02:13:28;101590.88;;;11.13;69.58
73341;BME280;61578;52.002;5.468;2023-05-01T02:14:06;101598.19;;;11.09;68.81
73341;BME280;61578;52.002;5.468;2023-05-01T02:14:44;101593.47;;;11.14;68.83
73341;BME280;61578;52.002;5.468;2023-05-01T02:15:19;101587.28;;;11.14;69.14
73341;BME280;61578;52.002;5.468;2023-05-01T02:15:57;101597.75;;;11.17;68.80
73341;BME280;61578;52.002;5.468;2023-05-01T02:16:32;101595.03;;;11.18;68.19
73341;BME280;61578;52.002;5.468;2023-05-01T02:17:05;101585.50;;;11.14;67.23
73341;BME280;61578;52.002;5.468;2023-05-01T02:17:39;101592.19;;;11.21;68.13
73341;BME280;61578;52.002;5.468;2023-05-01T02:18:14;101597.50;;;11.21;68.54
73341;BME280;61578;52.002;5.468;2023-05-01T02:18:47;101575.09;;;11.10;68.55
73341;BME280;61578;52.002;5.468;2023-05-01T02:19:20;101593.31;;;11.17;66.90
73341;BME280;61578;52.002;5.468;2023-05-01T02:19:52;101592.88;;;11.25;67.34
73341;BME280;61578;52.002;5.468;2023-05-01T02:20:25;101589.28;;;11.26;67.67
73341;BME280;61578;52.002;5.468;2023-05-01T02:21:02;101585.50;;;11.30;65.92
73341;BME280;61578;52.002;5.468;2023-05-01T02:21:36;101589.78;;;11.32;65.45
73341;BME280;61578;52.002;5.468;2023-05-01T02:22:09;101582.59;;;11.34;67.55
73341;BME280;61578;52.002;5.468;2023-05-01T02:22:44;101593.06;;;11.37;67.06
73341;BME280;61578;52.002;5.468;2023-05-01T02:23:16;101590.50;;;11.36;66.90
73341;BME280;61578;52.002;5.468;2023-05-01T02:23:48;101589.47;;;11.38;68.16
73341;BME280;61578;52.002;5.468;2023-05-01T02:24:21;101580.88;;;11.33;65.97
73341;BME280;61578;52.002;5.468;2023-05-01T02:24:59;101592.13;;;11.38;65.46
73341;BME280;61578;52.002;5.468;2023-05-01T02:25:33;101583.97;;;11.41;65.02
73341;BME280;61578;52.002;5.468;2023-05-01T02:26:14;101590.84;;;11.46;63.84
73341;BME280;61578;52.002;5.468;2023-05-01T02:27:03;101586.09;;;11.51;65.01
73341;BME280;61578;52.002;5.468;2023-05-01T02:27:51;101585.16;;;11.52;65.37
73341;BME280;61578;52.002;5.468;2023-05-01T02:28:31;101577.25;;;11.50;64.93
73341;BME280;61578;52.002;5.468;2023-05-01T02:29:04;101578.81;;;11.54;64.34
73341;BME280;61578;52.002;5.468;2023-05-01T02:29:36;101577.03;;;11.55;64.86
73341;BME280;61578;52.002;5.468;2023-05-01T02:30:07;101549.66;;;11.37;62.83
73341;BME280;61578;52.002;5.468;2023-05-01T02:30:39;101533.97;;;11.32;63.92
73341;BME280;61578;52.002;5.468;2023-05-01T02:31:10;101576.84;;;11.58;64.04
73341;BME280;61578;52.002;5.468;2023-05-01T02:31:41;101581.13;;;11.60;65.30
73341;BME280;61578;52.002;5.468;2023-05-01T02:32:11;101529.41;;;11.34;64.88
73341;BME280;61578;52.002;5.468;2023-05-01T02:32:42;101574.28;;;11.56;64.06
73341;BME280;61578;52.002;5.468;2023-05-01T02:33:14;101579.31;;;11.61;63.01
73341;BME280;61578;52.002;5.468;2023-05-01T02:33:44;101574.78;;;11.63;63.64
73341;BME280;61578;52.002;5.468;2023-05-01T02:34:15;101574.69;;;11.64;63.38
73341;BME280;61578;52.002;5.468;2023-05-01T02:34:49;101569.66;;;11.60;63.67
73341;BME280;61578;52.002;5.468;2023-05-01T02:35:19;101572.91;;;11.65;62.79
73341;BME280;61578;52.002;5.468;2023-05-01T02:35:50;101560.97;;;11.56;62.25
73341;BME280;61578;52.002;5.468;2023-05-01T02:36:23;101577.19;;;11.67;64.03
73341;BME280;61578;52.002;5.468;2023-05-01T02:36:54;101570.06;;;11.68;62.92
73341;BME280;61578;52.002;5.468;2023-05-01T02:37:31;101571.97;;;11.66;61.97
73341;BME280;61578;52.002;5.468;2023-05-01T02:38:04;101573.31;;;11.73;62.25
73341;BME280;61578;52.002;5.468;2023-05-01T02:38:35;101564.56;;;11.71;61.74
73341;BME280;61578;52.002;5.468;2023-05-01T02:39:06;101572.25;;;11.77;61.52
73341;BME280;61578;52.002;5.468;2023-05-01T02:39:38;101571.47;;;11.75;62.99
73341;BME280;61578;52.002;5.468;2023-05-01T02:40:11;101521.78;;;11.44;63.67
73341;BME280;61578;52.002;5.468;2023-05-01T02:40:49;101574.91;;;11.77;64.43
73341;BME280;61578;52.002;5.468;2023-05-01T02:41:24;101571.38;;;11.76;64.30
73341;BME280;61578;52.002;5.468;2023-05-01T02:41:59;101568.81;;;11.75;62.69
73341;BME280;61578;52.002;5.468;2023-05-01T02:42:33;101570.53;;;11.76;63.20
73341;BME280;61578;52.002;5.468;2023-05-01T02:43:09;101577.69;;;11.74;64.14
73341;BME280;61578;52.002;5.468;2023-05-01T02:43:48;101570.66;;;11.73;62.82
73341;BME280;61578;52.002;5.468;2023-05-01T02:44:26;101577.78;;;11.72;62.48
73341;BME280;61578;52.002;5.468;2023-05-01T02:45:04;101568.84;;;11.73;63.06
73341;BME280;61578;52.002;5.468;2023-05-01T02:45:39;101564.38;;;11.74;62.53
73341;BME280;61578;52.002;5.468;2023-05-01T02:46:13;101564.66;;;11.69;63.11
73341;BME280;61578;52.002;5.468;2023-05-01T02:46:49;101563.63;;;11.72;62.88
73341;BME280;61578;52.002;5.468;2023-05-01T02:47:27;101567.13;;;11.72;63.06
73341;BME280;61578;52.002;5.468;2023-05-01T02:48:04;101570.72;;;11.71;61.97
73341;BME280;61578;52.002;5.468;2023-05-01T02:48:45;101564.47;;;11.72;61.77
73341;BME280;61578;52.002;5.468;2023-05-01T02:49:17;101559.06;;;11.74;62.48
73341;BME280;61578;52.002;5.468;2023-05-01T02:49:53;101552.22;;;11.70;62.57
73341;BME280;61578;52.002;5.468;2023-05-01T02:50:25;101557.22;;;11.76;61.94
73341;BME280;61578;52.002;5.468;2023-05-01T02:51:00;101558.28;;;11.72;62.35
73341;BME280;61578;52.002;5.468;2023-05-01T02:51:34;101560.66;;;11.78;63.51
73341;BME280;61578;52.002;5.468;2023-05-01T02:52:07;101557.22;;;11.76;63.39
73341;BME280;61578;52.002;5.468;2023-05-01T02:52:39;101565.19;;;11.76;63.52
73341;BME280;61578;52.002;5.468;2023-05-01T02:53:14;101563.53;;;11.73;63.01
73341;BME280;61578;52.002;5.468;2023-05-01T02:53:48;101523.06;;;11.53;62.73
73341;BME280;61578;52.002;5.468;2023-05-01T02:54:20;101545.19;;;11.69;63.99
73341;BME280;61578;52.002;5.468;2023-05-01T02:54:51;101559.06;;;11.74;64.48
73341;BME280;61578;52.002;5.468;2023-05-01T02:55:26;101563.63;;;11.72;63.81
73341;BME280;61578;52.002;5.468;2023-05-01T02:55:57;101545.44;;;11.64;63.37
73341;BME280;61578;52.002;5.468;2023-05-01T02:56:29;101552.22;;;11.70;62.86
73341;BME280;61578;52.002;5.468;2023-05-01T02:57:03;101542.00;;;11.62;64.02
73341;BME280;61578;52.002;5.468;2023-05-01T02:57:34;101555.84;;;11.69;63.61
73341;BME280;61578;52.002;5.468;2023-05-01T02:58:07;101548.19;;;11.63;63.18
73341;BME280;61578;52.002;5.468;2023-05-01T02:58:44;101547.00;;;11.68;62.95
73341;BME280;61578;52.002;5.468;2023-05-01T02:59:14;101548.09;;;11.64;63.95
73341;BME280;61578;52.002;5.468;2023-05-01T02:59:45;101559.44;;;11.68;64.17
73341;BME280;61578;52.002;5.468;2023-05-01T03:00:16;101545.34;;;11.66;63.77
73341;BME280;61578;52.002;5.468;2023-05-01T03:00:48;101547.06;;;11.67;63.72
73341;BME280;61578;52.002;5.468;2023-05-01T03:01:19;101505.25;;;11.39;63.58
73341;BME280;61578;52.002;5.468;2023-05-01T03:01:53;101499.25;;;11.35;64.38
73341;BME280;61578;52.002;5.468;2023-05-01T03:02:23;101542.88;;;11.63;63.26
73341;BME280;61578;52.002;5.468;2023-05-01T03:02:57;101536.69;;;11.62;62.56
73341;BME280;61578;52.002;5.468;2023-05-01T03:03:36;101535.50;;;11.68;64.32
73341;BME280;61578;52.002;5.468;2023-05-01T03:04:07;101547.78;;;11.70;65.25
73341;BME280;61578;52.002;5.468;2023-05-01T03:04:37;101543.38;;;11.69;63.51
73341;BME280;61578;52.002;5.468;2023-05-01T03:05:08;101522.13;;;11.54;62.87
73341;BME280;61578;52.002;5.468;2023-05-01T03:05:39;101545.19;;;11.69;63.88
73341;BME280;61578;52.002;5.468;2023-05-01T03:06:13;101541.47;;;11.71;62.60
73341;BME280;61578;52.002;5.468;2023-05-01T03:06:45;101545.09;;;11.70;63.17
73341;BME280;61578;52.002;5.468;2023-05-01T03:07:16;101544.13;;;11.71;63.68
73341;BME280;61578;52.002;5.468;2023-05-01T03:07:53;101524.44;;;11.60;62.92
73341;BME280;61578;52.002;5.468;2023-05-01T03:08:26;101539.00;;;11.68;62.03
73341;BME280;61578;52.002;5.468;2023-05-01T03:08:57;101541.59;;;11.70;62.32
73341;BME280;61578;52.002;5.468;2023-05-01T03:09:28;101492.81;;;11.39;61.90
73341;BME280;61578;52.002;5.468;2023-05-01T03:09:58;101538.16;;;11.68;62.00
73341;BME280;61578;52.002;5.468;2023-05-01T03:10:29;101482.06;;;11.41;62.13
73341;BME280;61578;52.002;5.468;2023-05-01T03:11:03;101547.56;;;11.73;61.29
73341;BME280;61578;52.002;5.468;2023-05-01T03:11:36;101538.66;;;11.74;62.13
73341;BME280;61578;52.002;5.468;2023-05-01T03:12:06;101540.41;;;11.75;61.48
73341;BME280;61578;52.002;5.468;2023-05-01T03:12:37;101541.16;;;11.77;61.72
73341;BME280;61578;52.002;5.468;2023-05-01T03:13:08;101537.72;;;11.75;62.76
73341;BME280;61578;52.002;5.468;2023-05-01T03:13:46;101535.00;;;11.77;61.96
73341;BME280;61578;52.002;5.468;2023-05-01T03:14:17;101542.13;;;11.76;62.77
73341;BME280;61578;52.002;5.468;2023-05-01T03:14:48;101479.41;;;11.41;62.49
73341;BME280;61578;52.002;5.468;2023-05-01T03:15:19;101533.31;;;11.74;61.60